sensor_id;sensor_type;location;lat;lon;timestamp;P1;durP1;ratioP1;P2;durP2;ratioP2
76262;SDS011;65080;50.908;6.916;2023-02-28T00:01:13;2.73;;;1.60;;
76262;SDS011;65080;50.908;6.916;2023-02-28T00:03:42;6.43;;;1.80;;
76262;SDS011;65080;50.908;6.916;2023-02-28T00:06:10;2.23;;;1.60;;
76262;SDS011;65080;50.908;6.916;2023-02-28T00:08:38;4.93;;;1.70;;
76262;SDS011;65080;50.908;6.916;2023-02-28T00:11:08;4.60;;;2.30;;
76262;SDS011;65080;50.908;6.916;2023-02-28T00:13:39;3.67;;;1.93;;
76262;SDS011;65080;50.908;6.916;2023-02-28T00:16:09;4.87;;;1.80;;
76262;SDS011;65080;50.908;6.916;2023-02-28T00:18:40;3.43;;;1.50;;
76262;SDS011;65080;50.908;6.916;2023-02-28T00:21:08;3.67;;;1.70;;
76262;SDS011;65080;50.908;6.916;2023-02-28T00:23:37;3.87;;;1.97;;
76262;SDS011;65080;50.908;6.916;2023-02-28T00:26:05;3.80;;;1.47;;
76262;SDS011;65080;50.908;6.916;2023-02-28T00:28:33;1.50;;;1.30;;
76262;SDS011;65080;50.908;6.916;2023-02-28T00:31:03;3.23;;;1.60;;
76262;SDS011;65080;50.908;6.916;2023-02-28T00:33:32;2.20;;;1.43;;
76262;SDS011;65080;50.908;6.916;2023-02-28T00:36:01;3.70;;;1.87;;
76262;SDS011;65080;50.908;6.916;2023-02-28T00:38:31;3.17;;;2.20;;
76262;SDS011;65080;50.908;6.916;2023-02-28T00:40:59;2.50;;;1.50;;
76262;SDS011;65080;50.908;6.916;2023-02-28T00:43:32;3.63;;;1.67;;
76262;SDS011;65080;50.908;6.916;2023-02-28T00:46:01;3.33;;;1.50;;
76262;SDS011;65080;50.908;6.916;2023-02-28T00:48:31;6.53;;;1.90;;
76262;SDS011;65080;50.908;6.916;2023-02-28T00:51:00;1.97;;;1.37;;
76262;SDS011;65080;50.908;6.916;2023-02-28T00:53:28;2.27;;;1.60;;
76262;SDS011;65080;50.908;6.916;2023-02-28T00:55:58;2.50;;;1.47;;
76262;SDS011;65080;50.908;6.916;2023-02-28T00:58:27;5.40;;;2.00;;
76262;SDS011;65080;50.908;6.916;2023-02-28T01:00:55;2.50;;;1.13;;
76262;SDS011;65080;50.908;6.916;2023-02-28T01:03:24;3.13;;;1.70;;
76262;SDS011;65080;50.908;6.916;2023-02-28T01:05:53;5.00;;;1.60;;
76262;SDS011;65080;50.908;6.916;2023-02-28T01:08:21;3.40;;;1.30;;
76262;SDS011;65080;50.908;6.916;2023-02-28T01:10:49;3.90;;;1.37;;
76262;SDS011;65080;50.908;6.916;2023-02-28T01:13:18;3.80;;;1.40;;
76262;SDS011;65080;50.908;6.916;2023-02-28T01:15:48;2.50;;;1.30;;
76262;SDS011;65080;50.908;6.916;2023-02-28T01:18:18;2.67;;;1.80;;
76262;SDS011;65080;50.908;6.916;2023-02-28T01:20:48;2.70;;;1.67;;
76262;SDS011;65080;50.908;6.916;2023-02-28T01:23:18;3.00;;;1.30;;
76262;SDS011;65080;50.908;6.916;2023-02-28T01:25:48;5.90;;;1.70;;
76262;SDS011;65080;50.908;6.916;2023-02-28T01:28:16;3.30;;;1.60;;
76262;SDS011;65080;50.908;6.916;2023-02-28T01:30:47;4.90;;;1.73;;
76262;SDS011;65080;50.908;6.916;2023-02-28T01:33:15;3.10;;;1.80;;
76262;SDS011;65080;50.908;6.916;2023-02-28T01:35:44;2.70;;;1.63;;
76262;SDS011;65080;50.908;6.916;2023-02-28T01:38:13;3.13;;;1.40;;
76262;SDS011;65080;50.908;6.916;2023-02-28T01:40:48;3.10;;;2.00;;
76262;SDS011;65080;50.908;6.916;2023-02-28T01:43:21;2.27;;;1.60;;
76262;SDS011;65080;50.908;6.916;2023-02-28T01:45:50;5.83;;;1.60;;
76262;SDS011;65080;50.908;6.916;2023-02-28T01:48:19;2.37;;;1.60;;
76262;SDS011;65080;50.908;6.916;2023-02-28T01:50:50;4.07;;;1.63;;
76262;SDS011;65080;50.908;6.916;2023-02-28T01:53:21;2.53;;;1.53;;
76262;SDS011;65080;50.908;6.916;2023-02-28T01:55:54;3.10;;;1.90;;
76262;SDS011;65080;50.908;6.916;2023-02-28T01:58:22;2.50;;;1.40;;
76262;SDS011;65080;50.908;6.916;2023-02-28T02:00:51;2.30;;;1.30;;
76262;SDS011;65080;50.908;6.916;2023-02-28T02:03:19;2.07;;;1.80;;
76262;SDS011;65080;50.908;6.916;2023-02-28T02:05:48;3.60;;;1.30;;
76262;SDS011;65080;50.908;6.916;2023-02-28T02:08:17;2.40;;;1.50;;
76262;SDS011;65080;50.908;6.916;2023-02-28T02:10:49;3.73;;;1.67;;
76262;SDS011;65080;50.908;6.916;2023-02-28T02:13:24;2.37;;;1.33;;
76262;SDS011;65080;50.908;6.916;2023-02-28T02:16:07;1.70;;;1.20;;
76262;SDS011;65080;50.908;6.916;2023-02-28T02:18:46;2.43;;;1.40;;
76262;SDS011;65080;50.908;6.916;2023-02-28T02:21:29;3.27;;;1.30;;
76262;SDS011;65080;50.908;6.916;2023-02-28T02:27:27;3.50;;;1.37;;
76262;SDS011;65080;50.908;6.916;2023-02-28T02:33:28;2.97;;;1.63;;
76262;SDS011;65080;50.908;6.916;2023-02-28T02:36:14;3.70;;;2.30;;
76262;SDS011;65080;50.908;6.916;2023-02-28T02:38:49;3.37;;;1.50;;
76262;SDS011;65080;50.908;6.916;2023-02-28T02:41:24;2.27;;;1.80;;
76262;SDS011;65080;50.908;6.916;2023-02-28T02:43:56;2.17;;;1.50;;
76262;SDS011;65080;50.908;6.916;2023-02-28T02:46:31;3.57;;;1.63;;
76262;SDS011;65080;50.908;6.916;2023-02-28T02:49:03;2.60;;;1.53;;
76262;SDS011;65080;50.908;6.916;2023-02-28T02:51:35;2.90;;;1.50;;
76262;SDS011;65080;50.908;6.916;2023-02-28T02:54:06;2.67;;;1.83;;
76262;SDS011;65080;50.908;6.916;2023-02-28T02:56:38;2.20;;;1.50;;
76262;SDS011;65080;50.908;6.916;2023-02-28T02:59:10;1.60;;;1.37;;
76262;SDS011;65080;50.908;6.916;2023-02-28T03:01:41;1.73;;;1.50;;
76262;SDS011;65080;50.908;6.916;2023-02-28T03:04:11;3.23;;;1.53;;
76262;SDS011;65080;50.908;6.916;2023-02-28T03:06:43;2.27;;;1.80;;
76262;SDS011;65080;50.908;6.916;2023-02-28T03:09:11;1.63;;;1.30;;
76262;SDS011;65080;50.908;6.916;2023-02-28T03:11:40;2.00;;;1.30;;
76262;SDS011;65080;50.908;6.916;2023-02-28T03:14:18;3.20;;;1.70;;
76262;SDS011;65080;50.908;6.916;2023-02-28T03:20:15;1.43;;;1.07;;
76262;SDS011;65080;50.908;6.916;2023-02-28T03:22:56;2.23;;;1.33;;
76262;SDS011;65080;50.908;6.916;2023-02-28T03:25:33;1.70;;;1.43;;
76262;SDS011;65080;50.908;6.916;2023-02-28T03:28:08;1.63;;;1.33;;
76262;SDS011;65080;50.908;6.916;2023-02-28T03:30:46;2.90;;;1.60;;
76262;SDS011;65080;50.908;6.916;2023-02-28T03:33:21;2.83;;;1.43;;
76262;SDS011;65080;50.908;6.916;2023-02-28T03:35:52;2.73;;;1.30;;
76262;SDS011;65080;50.908;6.916;2023-02-28T03:38:26;1.70;;;0.97;;
76262;SDS011;65080;50.908;6.916;2023-02-28T03:40:58;3.13;;;1.30;;
76262;SDS011;65080;50.908;6.916;2023-02-28T03:43:33;2.13;;;1.60;;
76262;SDS011;65080;50.908;6.916;2023-02-28T03:46:05;4.27;;;1.63;;
76262;SDS011;65080;50.908;6.916;2023-02-28T03:48:38;1.63;;;1.30;;
76262;SDS011;65080;50.908;6.916;2023-02-28T03:51:10;2.90;;;1.30;;
76262;SDS011;65080;50.908;6.916;2023-02-28T03:53:45;4.00;;;1.20;;
76262;SDS011;65080;50.908;6.916;2023-02-28T03:56:19;2.57;;;1.40;;
76262;SDS011;65080;50.908;6.916;2023-02-28T03:58:51;2.37;;;1.77;;
76262;SDS011;65080;50.908;6.916;2023-02-28T04:01:25;1.40;;;1.00;;
76262;SDS011;65080;50.908;6.916;2023-02-28T04:03:59;1.70;;;1.30;;
76262;SDS011;65080;50.908;6.916;2023-02-28T04:06:27;5.33;;;1.70;;
76262;SDS011;65080;50.908;6.916;2023-02-28T04:09:00;2.80;;;1.60;;
76262;SDS011;65080;50.908;6.916;2023-02-28T04:11:31;2.10;;;1.67;;
76262;SDS011;65080;50.908;6.916;2023-02-28T04:14:02;2.10;;;0.90;;
76262;SDS011;65080;50.908;6.916;2023-02-28T04:16:31;1.67;;;1.20;;
76262;SDS011;65080;50.908;6.916;2023-02-28T04:19:01;1.40;;;1.27;;
76262;SDS011;65080;50.908;6.916;2023-02-28T04:21:31;1.97;;;1.37;;
76262;SDS011;65080;50.908;6.916;2023-02-28T04:24:02;2.30;;;1.50;;
76262;SDS011;65080;50.908;6.916;2023-02-28T04:26:32;1.80;;;1.27;;
76262;SDS011;65080;50.908;6.916;2023-02-28T04:29:05;2.07;;;1.50;;
76262;SDS011;65080;50.908;6.916;2023-02-28T04:31:34;2.40;;;1.30;;
76262;SDS011;65080;50.908;6.916;2023-02-28T04:34:02;2.33;;;1.30;;
76262;SDS011;65080;50.908;6.916;2023-02-28T04:36:30;3.57;;;1.40;;
76262;SDS011;65080;50.908;6.916;2023-02-28T04:38:59;2.50;;;1.80;;
76262;SDS011;65080;50.908;6.916;2023-02-28T04:41:28;2.30;;;1.63;;
76262;SDS011;65080;50.908;6.916;2023-02-28T04:43:58;2.83;;;1.13;;
76262;SDS011;65080;50.908;6.916;2023-02-28T04:46:26;5.10;;;1.40;;
76262;SDS011;65080;50.908;6.916;2023-02-28T04:48:55;3.27;;;1.30;;
76262;SDS011;65080;50.908;6.916;2023-02-28T04:51:23;1.83;;;1.47;;
76262;SDS011;65080;50.908;6.916;2023-02-28T04:53:52;1.93;;;1.67;;
76262;SDS011;65080;50.908;6.916;2023-02-28T04:56:20;2.47;;;1.50;;
76262;SDS011;65080;50.908;6.916;2023-02-28T04:58:50;1.53;;;1.10;;
76262;SDS011;65080;50.908;6.916;2023-02-28T05:01:21;4.67;;;1.77;;
76262;SDS011;65080;50.908;6.916;2023-02-28T05:03:51;2.50;;;1.50;;
76262;SDS011;65080;50.908;6.916;2023-02-28T05:06:20;2.53;;;1.60;;
76262;SDS011;65080;50.908;6.916;2023-02-28T05:08:50;3.03;;;1.60;;
76262;SDS011;65080;50.908;6.916;2023-02-28T05:11:20;3.33;;;1.60;;
76262;SDS011;65080;50.908;6.916;2023-02-28T05:13:51;1.80;;;1.30;;
76262;SDS011;65080;50.908;6.916;2023-02-28T05:16:20;3.03;;;1.67;;
76262;SDS011;65080;50.908;6.916;2023-02-28T05:18:48;2.10;;;1.63;;
76262;SDS011;65080;50.908;6.916;2023-02-28T05:21:22;2.00;;;1.20;;
76262;SDS011;65080;50.908;6.916;2023-02-28T05:23:54;4.90;;;1.80;;
76262;SDS011;65080;50.908;6.916;2023-02-28T05:26:23;1.73;;;1.60;;
76262;SDS011;65080;50.908;6.916;2023-02-28T05:28:53;2.57;;;1.83;;
76262;SDS011;65080;50.908;6.916;2023-02-28T05:31:21;5.10;;;1.70;;
76262;SDS011;65080;50.908;6.916;2023-02-28T05:33:50;2.13;;;1.70;;
76262;SDS011;65080;50.908;6.916;2023-02-28T05:36:19;2.77;;;1.40;;
76262;SDS011;65080;50.908;6.916;2023-02-28T05:38:47;2.53;;;1.30;;
76262;SDS011;65080;50.908;6.916;2023-02-28T05:41:16;2.47;;;1.77;;
76262;SDS011;65080;50.908;6.916;2023-02-28T05:43:45;3.10;;;1.60;;
76262;SDS011;65080;50.908;6.916;2023-02-28T05:46:15;3.73;;;1.73;;
76262;SDS011;65080;50.908;6.916;2023-02-28T05:48:46;2.40;;;1.27;;
76262;SDS011;65080;50.908;6.916;2023-02-28T05:51:15;1.47;;;1.20;;
76262;SDS011;65080;50.908;6.916;2023-02-28T05:53:43;2.83;;;1.53;;
76262;SDS011;65080;50.908;6.916;2023-02-28T05:56:12;4.03;;;2.10;;
76262;SDS011;65080;50.908;6.916;2023-02-28T05:58:40;2.67;;;1.67;;
76262;SDS011;65080;50.908;6.916;2023-02-28T06:01:30;2.73;;;1.47;;
76262;SDS011;65080;50.908;6.916;2023-02-28T06:04:00;2.70;;;1.50;;
76262;SDS011;65080;50.908;6.916;2023-02-28T06:06:30;1.40;;;1.23;;
76262;SDS011;65080;50.908;6.916;2023-02-28T06:09:02;2.03;;;1.37;;
76262;SDS011;65080;50.908;6.916;2023-02-28T06:11:31;2.77;;;1.33;;
76262;SDS011;65080;50.908;6.916;2023-02-28T06:14:00;3.43;;;1.40;;
76262;SDS011;65080;50.908;6.916;2023-02-28T06:16:31;2.33;;;1.53;;
76262;SDS011;65080;50.908;6.916;2023-02-28T06:19:01;3.20;;;1.40;;
76262;SDS011;65080;50.908;6.916;2023-02-28T06:21:31;1.87;;;1.40;;
76262;SDS011;65080;50.908;6.916;2023-02-28T06:23:59;2.00;;;1.40;;
76262;SDS011;65080;50.908;6.916;2023-02-28T06:26:27;3.03;;;1.40;;
76262;SDS011;65080;50.908;6.916;2023-02-28T06:28:56;2.53;;;1.50;;
76262;SDS011;65080;50.908;6.916;2023-02-28T06:31:24;2.87;;;1.80;;
76262;SDS011;65080;50.908;6.916;2023-02-28T06:33:54;2.17;;;1.40;;
76262;SDS011;65080;50.908;6.916;2023-02-28T06:36:23;2.40;;;1.47;;
76262;SDS011;65080;50.908;6.916;2023-02-28T06:38:51;1.80;;;1.37;;
76262;SDS011;65080;50.908;6.916;2023-02-28T06:41:22;1.80;;;1.30;;
76262;SDS011;65080;50.908;6.916;2023-02-28T06:43:52;4.70;;;1.53;;
76262;SDS011;65080;50.908;6.916;2023-02-28T06:46:21;2.03;;;1.60;;
76262;SDS011;65080;50.908;6.916;2023-02-28T06:48:49;2.63;;;1.60;;
76262;SDS011;65080;50.908;6.916;2023-02-28T06:51:20;2.47;;;1.70;;
76262;SDS011;65080;50.908;6.916;2023-02-28T06:53:49;2.50;;;1.80;;
76262;SDS011;65080;50.908;6.916;2023-02-28T06:56:17;2.00;;;1.30;;
76262;SDS011;65080;50.908;6.916;2023-02-28T06:58:47;3.40;;;1.80;;
76262;SDS011;65080;50.908;6.916;2023-02-28T07:01:16;1.87;;;1.57;;
76262;SDS011;65080;50.908;6.916;2023-02-28T07:03:45;1.60;;;1.50;;
76262;SDS011;65080;50.908;6.916;2023-02-28T07:06:20;2.20;;;1.83;;
76262;SDS011;65080;50.908;6.916;2023-02-28T07:08:49;6.57;;;1.67;;
76262;SDS011;65080;50.908;6.916;2023-02-28T07:11:18;4.33;;;1.93;;
76262;SDS011;65080;50.908;6.916;2023-02-28T07:13:48;2.73;;;1.67;;
76262;SDS011;65080;50.908;6.916;2023-02-28T07:16:17;2.63;;;1.90;;
76262;SDS011;65080;50.908;6.916;2023-02-28T07:18:46;3.37;;;2.40;;
76262;SDS011;65080;50.908;6.916;2023-02-28T07:21:14;2.43;;;1.70;;
76262;SDS011;65080;50.908;6.916;2023-02-28T07:23:44;3.97;;;1.40;;
76262;SDS011;65080;50.908;6.916;2023-02-28T07:26:13;1.70;;;1.57;;
76262;SDS011;65080;50.908;6.916;2023-02-28T07:28:44;4.07;;;1.90;;
76262;SDS011;65080;50.908;6.916;2023-02-28T07:31:13;4.80;;;1.53;;
76262;SDS011;65080;50.908;6.916;2023-02-28T07:33:43;3.90;;;1.47;;
76262;SDS011;65080;50.908;6.916;2023-02-28T07:36:12;1.57;;;1.33;;
76262;SDS011;65080;50.908;6.916;2023-02-28T07:38:42;2.07;;;1.70;;
76262;SDS011;65080;50.908;6.916;2023-02-28T07:41:15;2.13;;;1.77;;
76262;SDS011;65080;50.908;6.916;2023-02-28T07:43:44;3.00;;;1.80;;
76262;SDS011;65080;50.908;6.916;2023-02-28T07:46:14;2.50;;;1.77;;
76262;SDS011;65080;50.908;6.916;2023-02-28T07:48:43;2.70;;;1.53;;
76262;SDS011;65080;50.908;6.916;2023-02-28T07:51:12;2.10;;;1.40;;
76262;SDS011;65080;50.908;6.916;2023-02-28T07:53:40;5.27;;;1.97;;
76262;SDS011;65080;50.908;6.916;2023-02-28T07:56:08;2.73;;;1.70;;
76262;SDS011;65080;50.908;6.916;2023-02-28T07:58:39;2.50;;;1.50;;
76262;SDS011;65080;50.908;6.916;2023-02-28T08:01:07;1.73;;;1.63;;
76262;SDS011;65080;50.908;6.916;2023-02-28T08:03:37;2.10;;;1.67;;
76262;SDS011;65080;50.908;6.916;2023-02-28T08:06:07;1.80;;;1.50;;
76262;SDS011;65080;50.908;6.916;2023-02-28T08:08:42;2.03;;;1.30;;
76262;SDS011;65080;50.908;6.916;2023-02-28T08:11:11;5.67;;;1.90;;
76262;SDS011;65080;50.908;6.916;2023-02-28T08:13:40;2.30;;;1.80;;
76262;SDS011;65080;50.908;6.916;2023-02-28T08:16:10;3.00;;;1.67;;
76262;SDS011;65080;50.908;6.916;2023-02-28T08:18:43;3.27;;;1.23;;
76262;SDS011;65080;50.908;6.916;2023-02-28T08:21:12;1.93;;;1.40;;
76262;SDS011;65080;50.908;6.916;2023-02-28T08:23:40;1.53;;;1.40;;
76262;SDS011;65080;50.908;6.916;2023-02-28T08:26:09;2.73;;;1.10;;
76262;SDS011;65080;50.908;6.916;2023-02-28T08:28:37;1.70;;;1.30;;
76262;SDS011;65080;50.908;6.916;2023-02-28T08:31:10;3.00;;;1.30;;
76262;SDS011;65080;50.908;6.916;2023-02-28T08:33:41;3.00;;;1.40;;
76262;SDS011;65080;50.908;6.916;2023-02-28T08:36:11;2.80;;;1.30;;
76262;SDS011;65080;50.908;6.916;2023-02-28T08:38:39;2.17;;;1.30;;
76262;SDS011;65080;50.908;6.916;2023-02-28T08:41:09;2.50;;;1.60;;
76262;SDS011;65080;50.908;6.916;2023-02-28T08:43:39;2.47;;;1.50;;
76262;SDS011;65080;50.908;6.916;2023-02-28T08:46:10;2.10;;;1.20;;
76262;SDS011;65080;50.908;6.916;2023-02-28T08:48:40;1.50;;;1.20;;
76262;SDS011;65080;50.908;6.916;2023-02-28T08:51:09;1.03;;;0.93;;
76262;SDS011;65080;50.908;6.916;2023-02-28T08:53:39;2.17;;;1.30;;
76262;SDS011;65080;50.908;6.916;2023-02-28T08:56:08;2.40;;;1.17;;
76262;SDS011;65080;50.908;6.916;2023-02-28T08:58:38;1.40;;;1.03;;
76262;SDS011;65080;50.908;6.916;2023-02-28T09:01:07;2.10;;;1.07;;
76262;SDS011;65080;50.908;6.916;2023-02-28T09:03:38;2.30;;;1.40;;
76262;SDS011;65080;50.908;6.916;2023-02-28T09:06:08;1.43;;;0.93;;
76262;SDS011;65080;50.908;6.916;2023-02-28T09:08:37;2.30;;;1.40;;
76262;SDS011;65080;50.908;6.916;2023-02-28T09:11:07;1.37;;;1.27;;
76262;SDS011;65080;50.908;6.916;2023-02-28T09:13:36;2.80;;;1.10;;
76262;SDS011;65080;50.908;6.916;2023-02-28T09:16:06;1.97;;;1.23;;
76262;SDS011;65080;50.908;6.916;2023-02-28T09:18:39;2.77;;;1.53;;
76262;SDS011;65080;50.908;6.916;2023-02-28T09:21:08;2.97;;;0.97;;
76262;SDS011;65080;50.908;6.916;2023-02-28T09:23:40;0.90;;;0.80;;
76262;SDS011;65080;50.908;6.916;2023-02-28T09:26:12;1.30;;;1.00;;
76262;SDS011;65080;50.908;6.916;2023-02-28T09:28:41;2.13;;;1.00;;
76262;SDS011;65080;50.908;6.916;2023-02-28T09:31:11;1.53;;;1.10;;
76262;SDS011;65080;50.908;6.916;2023-02-28T09:33:42;3.93;;;1.30;;
76262;SDS011;65080;50.908;6.916;2023-02-28T09:36:10;2.53;;;0.80;;
76262;SDS011;65080;50.908;6.916;2023-02-28T09:38:38;3.43;;;1.07;;
76262;SDS011;65080;50.908;6.916;2023-02-28T09:41:10;1.77;;;1.10;;
76262;SDS011;65080;50.908;6.916;2023-02-28T09:43:43;2.67;;;1.07;;
76262;SDS011;65080;50.908;6.916;2023-02-28T09:46:18;1.70;;;1.10;;
76262;SDS011;65080;50.908;6.916;2023-02-28T09:48:56;2.67;;;0.90;;
76262;SDS011;65080;50.908;6.916;2023-02-28T09:51:30;3.10;;;1.00;;
76262;SDS011;65080;50.908;6.916;2023-02-28T09:54:09;2.30;;;1.23;;
76262;SDS011;65080;50.908;6.916;2023-02-28T09:56:45;2.30;;;1.07;;
76262;SDS011;65080;50.908;6.916;2023-02-28T10:02:15;2.60;;;0.80;;
76262;SDS011;65080;50.908;6.916;2023-02-28T10:04:50;2.73;;;1.23;;
76262;SDS011;65080;50.908;6.916;2023-02-28T10:07:24;1.47;;;1.00;;
76262;SDS011;65080;50.908;6.916;2023-02-28T10:10:04;2.27;;;0.90;;
76262;SDS011;65080;50.908;6.916;2023-02-28T10:12:43;1.93;;;1.27;;
76262;SDS011;65080;50.908;6.916;2023-02-28T10:15:14;2.20;;;1.10;;
76262;SDS011;65080;50.908;6.916;2023-02-28T10:17:44;1.60;;;1.10;;
76262;SDS011;65080;50.908;6.916;2023-02-28T10:20:33;1.30;;;1.00;;
76262;SDS011;65080;50.908;6.916;2023-02-28T10:23:07;2.23;;;1.20;;
76262;SDS011;65080;50.908;6.916;2023-02-28T10:25:41;1.03;;;0.93;;
76262;SDS011;65080;50.908;6.916;2023-02-28T10:28:15;1.77;;;0.87;;
76262;SDS011;65080;50.908;6.916;2023-02-28T10:30:46;1.80;;;1.10;;
76262;SDS011;65080;50.908;6.916;2023-02-28T10:33:21;2.13;;;1.23;;
76262;SDS011;65080;50.908;6.916;2023-02-28T10:35:52;2.10;;;1.10;;
76262;SDS011;65080;50.908;6.916;2023-02-28T10:38:22;1.97;;;1.20;;
76262;SDS011;65080;50.908;6.916;2023-02-28T10:40:52;1.70;;;1.10;;
76262;SDS011;65080;50.908;6.916;2023-02-28T10:43:32;0.97;;;0.83;;
76262;SDS011;65080;50.908;6.916;2023-02-28T10:46:02;2.80;;;1.33;;
76262;SDS011;65080;50.908;6.916;2023-02-28T10:48:36;2.10;;;1.13;;
76262;SDS011;65080;50.908;6.916;2023-02-28T10:51:08;3.87;;;1.30;;
76262;SDS011;65080;50.908;6.916;2023-02-28T10:53:40;1.30;;;1.10;;
76262;SDS011;65080;50.908;6.916;2023-02-28T10:56:26;1.20;;;1.03;;
76262;SDS011;65080;50.908;6.916;2023-02-28T10:58:56;2.80;;;1.10;;
76262;SDS011;65080;50.908;6.916;2023-02-28T11:01:34;1.53;;;1.20;;
76262;SDS011;65080;50.908;6.916;2023-02-28T11:04:16;1.50;;;1.13;;
76262;SDS011;65080;50.908;6.916;2023-02-28T11:06:51;2.93;;;1.23;;
76262;SDS011;65080;50.908;6.916;2023-02-28T11:09:27;1.03;;;0.90;;
76262;SDS011;65080;50.908;6.916;2023-02-28T11:11:56;1.80;;;1.27;;
76262;SDS011;65080;50.908;6.916;2023-02-28T11:14:25;1.83;;;1.20;;
76262;SDS011;65080;50.908;6.916;2023-02-28T11:16:57;3.30;;;1.30;;
76262;SDS011;65080;50.908;6.916;2023-02-28T11:19:31;2.00;;;1.20;;
76262;SDS011;65080;50.908;6.916;2023-02-28T11:22:06;1.83;;;1.33;;
76262;SDS011;65080;50.908;6.916;2023-02-28T11:24:36;5.03;;;1.40;;
76262;SDS011;65080;50.908;6.916;2023-02-28T11:27:20;2.10;;;1.47;;
76262;SDS011;65080;50.908;6.916;2023-02-28T11:29:53;2.90;;;1.30;;
76262;SDS011;65080;50.908;6.916;2023-02-28T11:32:22;2.63;;;1.60;;
76262;SDS011;65080;50.908;6.916;2023-02-28T11:35:00;2.07;;;1.57;;
76262;SDS011;65080;50.908;6.916;2023-02-28T11:37:31;2.90;;;2.10;;
76262;SDS011;65080;50.908;6.916;2023-02-28T11:40:01;3.30;;;1.70;;
76262;SDS011;65080;50.908;6.916;2023-02-28T11:42:39;1.93;;;1.20;;
76262;SDS011;65080;50.908;6.916;2023-02-28T11:45:20;1.90;;;1.33;;
76262;SDS011;65080;50.908;6.916;2023-02-28T11:48:08;2.37;;;1.40;;
76262;SDS011;65080;50.908;6.916;2023-02-28T11:50:45;2.50;;;1.40;;
76262;SDS011;65080;50.908;6.916;2023-02-28T11:53:24;2.70;;;1.40;;
76262;SDS011;65080;50.908;6.916;2023-02-28T11:56:08;1.40;;;1.00;;
76262;SDS011;65080;50.908;6.916;2023-02-28T11:58:43;3.47;;;1.43;;
76262;SDS011;65080;50.908;6.916;2023-02-28T12:01:26;2.30;;;1.30;;
76262;SDS011;65080;50.908;6.916;2023-02-28T12:04:15;1.83;;;1.40;;
76262;SDS011;65080;50.908;6.916;2023-02-28T12:06:55;9.40;;;1.20;;
76262;SDS011;65080;50.908;6.916;2023-02-28T12:09:40;7.33;;;1.90;;
76262;SDS011;65080;50.908;6.916;2023-02-28T12:12:22;2.50;;;1.77;;
76262;SDS011;65080;50.908;6.916;2023-02-28T12:15:04;1.50;;;1.40;;
76262;SDS011;65080;50.908;6.916;2023-02-28T12:17:47;2.43;;;1.40;;
76262;SDS011;65080;50.908;6.916;2023-02-28T12:20:25;1.60;;;1.40;;
76262;SDS011;65080;50.908;6.916;2023-02-28T12:23:04;1.70;;;1.30;;
76262;SDS011;65080;50.908;6.916;2023-02-28T12:26:01;1.37;;;1.27;;
76262;SDS011;65080;50.908;6.916;2023-02-28T12:28:36;3.03;;;1.20;;
76262;SDS011;65080;50.908;6.916;2023-02-28T12:31:09;1.73;;;1.40;;
76262;SDS011;65080;50.908;6.916;2023-02-28T12:33:44;2.27;;;1.33;;
76262;SDS011;65080;50.908;6.916;2023-02-28T12:36:16;2.90;;;1.80;;
76262;SDS011;65080;50.908;6.916;2023-02-28T12:38:48;1.40;;;1.23;;
76262;SDS011;65080;50.908;6.916;2023-02-28T12:41:25;2.20;;;1.53;;
76262;SDS011;65080;50.908;6.916;2023-02-28T12:44:09;1.77;;;1.40;;
76262;SDS011;65080;50.908;6.916;2023-02-28T12:46:49;1.53;;;1.20;;
76262;SDS011;65080;50.908;6.916;2023-02-28T12:49:33;1.80;;;1.60;;
76262;SDS011;65080;50.908;6.916;2023-02-28T12:52:04;2.30;;;1.30;;
76262;SDS011;65080;50.908;6.916;2023-02-28T12:54:38;1.63;;;1.53;;
76262;SDS011;65080;50.908;6.916;2023-02-28T12:57:14;2.07;;;1.60;;
76262;SDS011;65080;50.908;6.916;2023-02-28T12:59:48;1.70;;;1.60;;
76262;SDS011;65080;50.908;6.916;2023-02-28T13:02:33;4.50;;;1.90;;
76262;SDS011;65080;50.908;6.916;2023-02-28T13:05:29;1.70;;;1.60;;
76262;SDS011;65080;50.908;6.916;2023-02-28T13:08:15;2.13;;;1.67;;
76262;SDS011;65080;50.908;6.916;2023-02-28T13:10:55;2.20;;;1.90;;
76262;SDS011;65080;50.908;6.916;2023-02-28T13:13:25;1.70;;;1.30;;
76262;SDS011;65080;50.908;6.916;2023-02-28T13:15:56;2.07;;;1.83;;
76262;SDS011;65080;50.908;6.916;2023-02-28T13:18:28;5.80;;;2.20;;
76262;SDS011;65080;50.908;6.916;2023-02-28T13:20:59;2.70;;;2.10;;
76262;SDS011;65080;50.908;6.916;2023-02-28T13:29:37;2.57;;;1.73;;
76262;SDS011;65080;50.908;6.916;2023-02-28T13:32:28;2.40;;;2.03;;
76262;SDS011;65080;50.908;6.916;2023-02-28T13:35:15;2.53;;;1.90;;
76262;SDS011;65080;50.908;6.916;2023-02-28T13:38:09;2.73;;;2.10;;
76262;SDS011;65080;50.908;6.916;2023-02-28T13:40:52;7.47;;;1.97;;
76262;SDS011;65080;50.908;6.916;2023-02-28T13:43:20;3.80;;;2.30;;
76262;SDS011;65080;50.908;6.916;2023-02-28T13:46:13;2.37;;;1.90;;
76262;SDS011;65080;50.908;6.916;2023-02-28T13:48:41;2.40;;;2.00;;
76262;SDS011;65080;50.908;6.916;2023-02-28T13:54:12;3.17;;;2.37;;
76262;SDS011;65080;50.908;6.916;2023-02-28T13:56:53;3.13;;;2.00;;
76262;SDS011;65080;50.908;6.916;2023-02-28T13:59:34;2.10;;;1.73;;
76262;SDS011;65080;50.908;6.916;2023-02-28T14:02:22;3.37;;;2.00;;
76262;SDS011;65080;50.908;6.916;2023-02-28T14:05:04;3.60;;;2.53;;
76262;SDS011;65080;50.908;6.916;2023-02-28T14:07:42;2.30;;;1.87;;
76262;SDS011;65080;50.908;6.916;2023-02-28T14:10:23;3.27;;;2.17;;
76262;SDS011;65080;50.908;6.916;2023-02-28T14:13:02;3.23;;;2.20;;
76262;SDS011;65080;50.908;6.916;2023-02-28T14:15:48;3.23;;;2.37;;
76262;SDS011;65080;50.908;6.916;2023-02-28T14:18:29;3.83;;;2.30;;
76262;SDS011;65080;50.908;6.916;2023-02-28T14:21:14;3.83;;;2.30;;
76262;SDS011;65080;50.908;6.916;2023-02-28T14:30:03;2.53;;;2.33;;
76262;SDS011;65080;50.908;6.916;2023-02-28T14:32:58;2.90;;;2.00;;
76262;SDS011;65080;50.908;6.916;2023-02-28T14:35:43;2.70;;;2.23;;
76262;SDS011;65080;50.908;6.916;2023-02-28T14:38:25;4.10;;;2.27;;
76262;SDS011;65080;50.908;6.916;2023-02-28T14:40:56;3.40;;;2.30;;
76262;SDS011;65080;50.908;6.916;2023-02-28T14:43:28;3.70;;;2.30;;
76262;SDS011;65080;50.908;6.916;2023-02-28T14:45:57;3.53;;;2.80;;
76262;SDS011;65080;50.908;6.916;2023-02-28T14:48:27;3.47;;;2.13;;
76262;SDS011;65080;50.908;6.916;2023-02-28T14:50:58;3.27;;;2.33;;
76262;SDS011;65080;50.908;6.916;2023-02-28T14:53:29;3.73;;;2.50;;
76262;SDS011;65080;50.908;6.916;2023-02-28T14:56:02;2.83;;;2.30;;
76262;SDS011;65080;50.908;6.916;2023-02-28T14:58:35;2.80;;;2.37;;
76262;SDS011;65080;50.908;6.916;2023-02-28T15:01:03;3.17;;;2.30;;
76262;SDS011;65080;50.908;6.916;2023-02-28T15:03:34;4.30;;;2.67;;
76262;SDS011;65080;50.908;6.916;2023-02-28T15:06:05;4.03;;;2.90;;
76262;SDS011;65080;50.908;6.916;2023-02-28T15:08:40;3.43;;;2.80;;
76262;SDS011;65080;50.908;6.916;2023-02-28T15:11:12;4.80;;;2.30;;
76262;SDS011;65080;50.908;6.916;2023-02-28T15:13:43;4.57;;;2.50;;
76262;SDS011;65080;50.908;6.916;2023-02-28T15:16:13;4.33;;;2.80;;
76262;SDS011;65080;50.908;6.916;2023-02-28T15:18:46;5.60;;;2.20;;
76262;SDS011;65080;50.908;6.916;2023-02-28T15:21:18;3.47;;;2.40;;
76262;SDS011;65080;50.908;6.916;2023-02-28T15:23:50;3.50;;;2.53;;
76262;SDS011;65080;50.908;6.916;2023-02-28T15:26:22;3.50;;;3.00;;
76262;SDS011;65080;50.908;6.916;2023-02-28T15:28:57;3.10;;;2.30;;
76262;SDS011;65080;50.908;6.916;2023-02-28T15:31:28;2.53;;;2.00;;
76262;SDS011;65080;50.908;6.916;2023-02-28T15:34:20;2.27;;;2.03;;
76262;SDS011;65080;50.908;6.916;2023-02-28T15:40:05;3.83;;;2.70;;
76262;SDS011;65080;50.908;6.916;2023-02-28T15:42:39;4.13;;;2.50;;
76262;SDS011;65080;50.908;6.916;2023-02-28T15:45:31;3.40;;;2.40;;
76262;SDS011;65080;50.908;6.916;2023-02-28T15:48:04;3.33;;;2.77;;
76262;SDS011;65080;50.908;6.916;2023-02-28T15:50:40;3.07;;;2.40;;
76262;SDS011;65080;50.908;6.916;2023-02-28T15:53:13;3.03;;;2.20;;